createdAt,value
2022-07-26T00:03:32.619Z,11.5
2022-07-26T00:09:08.134Z,11.6
2022-07-26T00:14:42.638Z,11.6
2022-07-26T00:21:24.725Z,11.6
2022-07-26T00:26:59.731Z,11.7
2022-07-26T00:32:34.743Z,11.7
2022-07-26T00:39:16.327Z,11.7
2022-07-26T00:44:51.357Z,11.7
2022-07-26T00:50:26.375Z,11.8
2022-07-26T00:56:01.345Z,11.8
2022-07-26T01:02:44.151Z,11.8
2022-07-26T01:08:18.504Z,11.8
2022-07-26T01:13:53.517Z,11.7
2022-07-26T01:19:35.811Z,11.5
2022-07-26T01:25:03.500Z,11.4
2022-07-26T01:30:38.469Z,11.2
2022-07-26T01:36:14.921Z,11.2
2022-07-26T01:41:48.498Z,11.3
2022-07-26T01:48:30.915Z,11.3
2022-07-26T01:54:06.014Z,11.3
2022-07-26T01:59:40.668Z,11.3
2022-07-26T02:05:15.662Z,11.3
2022-07-26T02:10:50.691Z,11.2
2022-07-26T02:16:25.787Z,11.3
2022-07-26T02:22:00.703Z,11.3
2022-07-26T02:27:35.673Z,11.3
2022-07-26T02:33:10.691Z,11.4
2022-07-26T02:38:45.717Z,11.6
2022-07-26T02:44:20.722Z,11.6
2022-07-26T02:49:55.724Z,11.4
2022-07-26T02:55:30.712Z,11.3
2022-07-26T03:04:21.986Z,11.2
2022-07-26T03:08:54.483Z,11.2
2022-07-26T03:14:29.594Z,11
2022-07-26T03:20:04.450Z,11.1
2022-07-26T03:25:39.504Z,11.1
2022-07-26T03:31:14.560Z,11.1
2022-07-26T03:36:49.482Z,11.1
2022-07-26T03:42:24.504Z,11.2
2022-07-26T03:47:59.507Z,11.2
2022-07-26T03:53:34.566Z,11.3
2022-07-26T03:59:09.531Z,11.3
2022-07-26T04:04:45.571Z,11.4
2022-07-26T04:10:19.544Z,11.5
2022-07-26T04:15:54.595Z,11.5
2022-07-26T04:21:29.595Z,11.6
2022-07-26T04:27:04.549Z,11.7
2022-07-26T04:32:39.577Z,11.7
2022-07-26T04:38:14.568Z,11.7
2022-07-26T04:43:49.588Z,11.7
2022-07-26T04:49:24.631Z,11.8
2022-07-26T04:54:59.619Z,11.7
2022-07-26T05:00:46.998Z,11.7
2022-07-26T05:06:09.663Z,11.7
2022-07-26T05:11:44.653Z,11.7
2022-07-26T05:17:19.635Z,11.7
2022-07-26T05:22:54.667Z,11.7
2022-07-26T05:28:29.633Z,11.7
2022-07-26T05:34:05.076Z,11.7
2022-07-26T05:39:39.721Z,11.6
2022-07-26T05:45:14.710Z,11.5
2022-07-26T05:52:01.099Z,11.3
2022-07-26T05:57:31.270Z,11.2
2022-07-26T06:03:06.234Z,11.1
2022-07-26T06:08:42.335Z,11.2
2022-07-26T06:14:16.315Z,11.2
2022-07-26T06:19:51.337Z,11.3
2022-07-26T06:25:26.381Z,11.4
2022-07-26T06:31:01.301Z,11.4
2022-07-26T06:36:36.341Z,11.3
2022-07-26T06:42:11.856Z,11.2
2022-07-26T06:47:46.334Z,11.2
2022-07-26T06:53:21.354Z,11.1
2022-07-26T06:58:56.481Z,11.2
2022-07-26T07:04:31.419Z,11.2
2022-07-26T07:10:06.333Z,11.2
2022-07-26T07:15:41.454Z,11.3
2022-07-26T07:21:16.447Z,11.4
2022-07-26T07:26:51.928Z,11.5
2022-07-26T07:32:26.686Z,11.7
2022-07-26T07:38:02.203Z,11.9
2022-07-26T07:43:36.617Z,12
2022-07-26T07:49:12.173Z,12.3
2022-07-26T07:55:55.375Z,12.5
2022-07-26T08:01:39.564Z,12.7
2022-07-26T08:07:03.539Z,12.9
2022-07-26T08:12:39.145Z,13
2022-07-26T08:18:14.083Z,13.2
2022-07-26T08:23:48.594Z,13.2
2022-07-26T08:29:23.575Z,13.1
2022-07-26T08:35:17.890Z,13
2022-07-26T08:40:33.022Z,13.1
2022-07-26T08:46:08.105Z,13.2
2022-07-26T08:51:43.136Z,13.3
2022-07-26T08:57:18.118Z,13.4
2022-07-26T09:02:53.100Z,13.5
2022-07-26T09:08:28.144Z,13.8
2022-07-26T09:14:03.206Z,14
2022-07-26T09:19:38.132Z,14
2022-07-26T09:25:13.151Z,14.2
2022-07-26T09:40:51.763Z,14.1
2022-07-26T09:46:26.635Z,14
2022-07-26T09:52:01.092Z,14
2022-07-26T09:57:36.024Z,13.9
2022-07-26T10:03:11.132Z,13.8
2022-07-26T10:08:46.122Z,13.6
2022-07-26T10:14:21.120Z,13.6
2022-07-26T10:19:56.149Z,13.7
2022-07-26T10:25:31.210Z,13.7
2022-07-26T10:31:06.182Z,13.7
2022-07-26T10:36:41.170Z,13.5
2022-07-26T10:42:16.194Z,13
2022-07-26T10:47:51.155Z,12.7
2022-07-26T10:53:26.127Z,12.6
2022-07-26T10:59:04.533Z,12.8
2022-07-26T11:04:36.163Z,13.1
2022-07-26T11:10:11.173Z,13.4
2022-07-26T11:15:46.348Z,13.7
2022-07-26T11:21:21.241Z,14
2022-07-26T11:26:56.175Z,14.1
2022-07-26T11:32:31.316Z,14.2
2022-07-26T11:38:12.272Z,14.1
2022-07-26T11:43:41.229Z,14
2022-07-26T11:49:16.360Z,14
2022-07-26T11:54:51.270Z,14.1
2022-07-26T12:00:26.280Z,14.2
2022-07-26T12:06:01.295Z,14.4
2022-07-26T12:11:36.261Z,14.4
2022-07-26T12:17:11.292Z,14.2
2022-07-26T12:22:46.305Z,13.9
2022-07-26T12:28:21.273Z,13.7
2022-07-26T12:33:56.433Z,13.4
2022-07-26T12:39:31.383Z,13.6
2022-07-26T12:45:06.413Z,13.9
2022-07-26T12:50:41.406Z,13.9
2022-07-26T12:56:16.454Z,13.9
2022-07-26T13:02:58.477Z,13.9
2022-07-26T13:08:33.451Z,13.9
2022-07-26T13:14:08.866Z,14.1
2022-07-26T13:19:43.466Z,14.1
2022-07-26T13:25:17.881Z,14
2022-07-26T13:30:53.072Z,14.3
2022-07-26T13:36:27.985Z,14.4
2022-07-26T13:42:02.929Z,14.4
2022-07-26T13:47:38.004Z,14.2
2022-07-26T13:53:12.965Z,13.9
2022-07-26T13:58:50.150Z,13.3
2022-07-26T14:04:22.990Z,13.2
2022-07-26T14:09:58.133Z,13.1
2022-07-26T14:15:33.003Z,13.3
2022-07-26T14:21:10.704Z,13.5
2022-07-26T14:26:43.030Z,13.7
2022-07-26T14:32:21.562Z,14
2022-07-26T14:37:53.060Z,14.3
2022-07-26T14:45:42.318Z,14.5
2022-07-26T14:51:17.434Z,14.6
2022-07-26T14:56:52.283Z,14.5
2022-07-26T15:02:27.302Z,14.3
2022-07-26T15:08:05.965Z,14.4
2022-07-26T15:13:37.269Z,14.5
2022-07-26T15:19:12.335Z,14.3
2022-07-26T15:24:47.371Z,14
2022-07-26T15:30:22.309Z,13.4
2022-07-26T15:35:58.181Z,13.5
2022-07-26T15:41:32.433Z,13.6
2022-07-26T15:48:18.364Z,13.9
2022-07-26T15:53:49.422Z,14
2022-07-26T15:59:23.928Z,14.2
2022-07-26T16:08:20.223Z,14.3
2022-07-26T16:17:16.019Z,14.2
2022-07-26T16:22:51.096Z,14.2
2022-07-26T16:29:33.184Z,14.2
2022-07-26T16:35:08.223Z,14.2
2022-07-26T16:40:43.265Z,14.3
2022-07-26T16:46:18.269Z,14.4
2022-07-26T16:51:53.162Z,14.4
2022-07-26T16:57:28.257Z,14.4
2022-07-26T17:03:03.214Z,14.3
2022-07-26T17:08:38.255Z,14.2
2022-07-26T17:14:13.255Z,14.1
2022-07-26T17:19:48.372Z,13.9
2022-07-26T17:25:23.291Z,13.6
2022-07-26T17:30:58.288Z,13.4
2022-07-26T17:36:33.272Z,13.4
2022-07-26T17:43:14.977Z,13.5
2022-07-26T17:48:50.237Z,13.6
2022-07-26T17:54:24.923Z,13.6
2022-07-26T18:00:03.144Z,13.6
2022-07-26T18:05:37.167Z,13.5
2022-07-26T18:11:09.935Z,13.4
2022-07-26T18:16:45.050Z,13.3
2022-07-26T18:22:19.888Z,13.2
2022-07-26T18:29:02.042Z,13.1
2022-07-26T18:34:37.009Z,13.2
2022-07-26T18:40:12.042Z,13.3
2022-07-26T18:46:54.215Z,13.2
2022-07-26T18:52:32.492Z,13.1
2022-07-26T18:58:06.897Z,12.9
2022-07-26T19:03:39.272Z,12.6
2022-07-26T19:09:14.425Z,12.5
2022-07-26T19:14:49.241Z,12.4
2022-07-26T19:20:24.499Z,12.5
2022-07-26T19:25:59.242Z,12.4
2022-07-26T19:31:35.449Z,12.5
2022-07-26T19:37:09.191Z,12.5
2022-07-26T19:42:44.276Z,12.4
2022-07-26T19:48:19.367Z,12.4
2022-07-26T19:53:54.331Z,12.5
2022-07-26T19:59:29.664Z,12.6
2022-07-26T20:05:04.369Z,12.6
2022-07-26T20:10:39.337Z,12.6
2022-07-26T20:16:14.599Z,12.5
2022-07-26T20:21:48.925Z,12.5
2022-07-26T20:27:23.766Z,12.4
2022-07-26T20:32:58.808Z,12.4
2022-07-26T20:38:33.829Z,12.4
2022-07-26T20:44:08.743Z,12.3
2022-07-26T20:49:43.754Z,12.3
2022-07-26T20:55:18.791Z,12.2
2022-07-26T21:00:53.945Z,12.2
2022-07-26T21:06:29.217Z,12.2
2022-07-26T21:12:04.382Z,12.2
2022-07-26T21:18:46.038Z,12.2
2022-07-26T21:25:28.142Z,12.2
2022-07-26T21:31:03.113Z,12.2
2022-07-26T21:36:38.143Z,12.2
2022-07-26T21:42:13.143Z,12.2
2022-07-26T21:47:48.120Z,12.2
2022-07-26T21:53:23.045Z,12.2
2022-07-26T22:00:05.158Z,12.2
2022-07-26T22:05:40.244Z,12.2
2022-07-26T22:11:15.260Z,12.3
2022-07-26T22:16:50.940Z,12.2
2022-07-26T22:22:24.748Z,12.2
2022-07-26T22:29:06.807Z,12.1
2022-07-26T22:34:41.842Z,12.1
2022-07-26T22:41:23.937Z,12
2022-07-26T22:46:58.942Z,12
2022-07-26T22:53:41.094Z,12
2022-07-26T22:59:16.062Z,12
2022-07-26T23:04:51.182Z,11.9
2022-07-26T23:10:26.381Z,11.9
2022-07-26T23:16:01.831Z,11.9
2022-07-26T23:22:42.786Z,11.9
2022-07-26T23:28:35.222Z,11.9
2022-07-26T23:33:54.432Z,11.9
2022-07-26T23:39:28.791Z,11.8
2022-07-26T23:45:02.777Z,11.8
2022-07-26T23:50:37.788Z,11.7
2022-07-26T23:56:12.852Z,11.7
